sensor_id;sensor_type;location;lat;lon;timestamp;P1;durP1;ratioP1;P2;durP2;ratioP2
70832;SDS011;71099;59.528;17.886;2023-09-19T00:01:05;9.80;;;5.00;;
70832;SDS011;71099;59.528;17.886;2023-09-19T00:03:37;8.80;;;5.28;;
70832;SDS011;71099;59.528;17.886;2023-09-19T00:06:02;8.32;;;5.82;;
70832;SDS011;71099;59.528;17.886;2023-09-19T00:08:29;12.52;;;6.03;;
70832;SDS011;71099;59.528;17.886;2023-09-19T00:10:55;10.10;;;6.32;;
70832;SDS011;71099;59.528;17.886;2023-09-19T00:13:21;11.55;;;5.70;;
70832;SDS011;71099;59.528;17.886;2023-09-19T00:15:47;8.68;;;5.95;;
70832;SDS011;71099;59.528;17.886;2023-09-19T00:18:13;11.90;;;6.13;;
70832;SDS011;71099;59.528;17.886;2023-09-19T00:20:40;9.63;;;7.15;;
70832;SDS011;71099;59.528;17.886;2023-09-19T00:23:07;15.13;;;6.63;;
70832;SDS011;71099;59.528;17.886;2023-09-19T00:25:35;12.63;;;7.10;;
70832;SDS011;71099;59.528;17.886;2023-09-19T00:28:02;7.97;;;5.85;;
70832;SDS011;71099;59.528;17.886;2023-09-19T00:30:29;9.77;;;6.25;;
70832;SDS011;71099;59.528;17.886;2023-09-19T00:32:55;10.52;;;6.68;;
70832;SDS011;71099;59.528;17.886;2023-09-19T00:35:21;14.35;;;7.00;;
70832;SDS011;71099;59.528;17.886;2023-09-19T00:37:50;12.63;;;6.50;;
70832;SDS011;71099;59.528;17.886;2023-09-19T00:40:16;11.60;;;6.93;;
70832;SDS011;71099;59.528;17.886;2023-09-19T00:42:45;12.52;;;6.65;;
70832;SDS011;71099;59.528;17.886;2023-09-19T00:45:12;9.38;;;6.82;;
70832;SDS011;71099;59.528;17.886;2023-09-19T00:47:39;12.88;;;7.03;;
70832;SDS011;71099;59.528;17.886;2023-09-19T00:50:07;9.88;;;6.82;;
70832;SDS011;71099;59.528;17.886;2023-09-19T00:52:37;11.05;;;7.00;;
70832;SDS011;71099;59.528;17.886;2023-09-19T00:55:06;14.88;;;7.38;;
70832;SDS011;71099;59.528;17.886;2023-09-19T00:57:36;11.85;;;7.13;;
70832;SDS011;71099;59.528;17.886;2023-09-19T01:00:06;12.82;;;7.20;;
70832;SDS011;71099;59.528;17.886;2023-09-19T01:02:37;12.07;;;7.05;;
70832;SDS011;71099;59.528;17.886;2023-09-19T01:05:03;14.43;;;7.72;;
70832;SDS011;71099;59.528;17.886;2023-09-19T01:07:30;11.40;;;7.22;;
70832;SDS011;71099;59.528;17.886;2023-09-19T01:09:57;13.90;;;8.45;;
70832;SDS011;71099;59.528;17.886;2023-09-19T01:12:34;8.82;;;7.57;;
70832;SDS011;71099;59.528;17.886;2023-09-19T01:17:59;15.43;;;8.32;;
70832;SDS011;71099;59.528;17.886;2023-09-19T01:21:21;18.50;;;9.15;;
70832;SDS011;71099;59.528;17.886;2023-09-19T01:26:06;17.60;;;9.40;;
70832;SDS011;71099;59.528;17.886;2023-09-19T01:28:53;12.23;;;8.38;;
70832;SDS011;71099;59.528;17.886;2023-09-19T01:31:33;16.00;;;8.85;;
70832;SDS011;71099;59.528;17.886;2023-09-19T01:34:02;15.88;;;9.15;;
70832;SDS011;71099;59.528;17.886;2023-09-19T01:36:36;14.93;;;9.32;;
70832;SDS011;71099;59.528;17.886;2023-09-19T01:39:06;13.23;;;9.82;;
70832;SDS011;71099;59.528;17.886;2023-09-19T01:44:09;15.90;;;9.68;;
70832;SDS011;71099;59.528;17.886;2023-09-19T01:46:40;14.63;;;10.75;;
70832;SDS011;71099;59.528;17.886;2023-09-19T01:52:13;18.73;;;11.52;;
70832;SDS011;71099;59.528;17.886;2023-09-19T01:54:46;14.63;;;9.77;;
70832;SDS011;71099;59.528;17.886;2023-09-19T01:57:17;17.83;;;10.68;;
70832;SDS011;71099;59.528;17.886;2023-09-19T02:00:03;22.77;;;13.30;;
70832;SDS011;71099;59.528;17.886;2023-09-19T02:02:35;14.98;;;10.77;;
70832;SDS011;71099;59.528;17.886;2023-09-19T02:05:03;15.93;;;11.15;;
70832;SDS011;71099;59.528;17.886;2023-09-19T02:07:29;17.08;;;11.18;;
70832;SDS011;71099;59.528;17.886;2023-09-19T02:09:59;13.52;;;10.93;;
70832;SDS011;71099;59.528;17.886;2023-09-19T02:12:31;15.52;;;11.95;;
70832;SDS011;71099;59.528;17.886;2023-09-19T02:14:57;16.17;;;10.50;;
70832;SDS011;71099;59.528;17.886;2023-09-19T02:17:24;19.13;;;11.80;;
70832;SDS011;71099;59.528;17.886;2023-09-19T02:19:51;19.05;;;12.70;;
70832;SDS011;71099;59.528;17.886;2023-09-19T02:22:17;18.42;;;13.05;;
70832;SDS011;71099;59.528;17.886;2023-09-19T02:24:43;17.13;;;12.88;;
70832;SDS011;71099;59.528;17.886;2023-09-19T02:27:08;20.60;;;12.68;;
70832;SDS011;71099;59.528;17.886;2023-09-19T02:29:34;20.13;;;13.07;;
70832;SDS011;71099;59.528;17.886;2023-09-19T02:31:59;20.08;;;13.45;;
70832;SDS011;71099;59.528;17.886;2023-09-19T02:34:27;23.38;;;13.10;;
70832;SDS011;71099;59.528;17.886;2023-09-19T02:36:53;21.42;;;13.13;;
70832;SDS011;71099;59.528;17.886;2023-09-19T02:39:20;23.38;;;13.23;;
70832;SDS011;71099;59.528;17.886;2023-09-19T02:41:45;21.77;;;13.35;;
70832;SDS011;71099;59.528;17.886;2023-09-19T02:44:11;23.67;;;14.52;;
70832;SDS011;71099;59.528;17.886;2023-09-19T02:46:37;19.63;;;13.13;;
70832;SDS011;71099;59.528;17.886;2023-09-19T02:49:03;27.52;;;14.30;;
70832;SDS011;71099;59.528;17.886;2023-09-19T02:51:31;25.60;;;14.38;;
70832;SDS011;71099;59.528;17.886;2023-09-19T02:53:58;17.98;;;13.93;;
70832;SDS011;71099;59.528;17.886;2023-09-19T02:56:24;21.33;;;14.80;;
70832;SDS011;71099;59.528;17.886;2023-09-19T02:58:50;25.10;;;14.60;;
70832;SDS011;71099;59.528;17.886;2023-09-19T03:01:16;25.25;;;17.27;;
70832;SDS011;71099;59.528;17.886;2023-09-19T03:03:44;23.95;;;16.92;;
70832;SDS011;71099;59.528;17.886;2023-09-19T03:06:10;18.75;;;14.48;;
70832;SDS011;71099;59.528;17.886;2023-09-19T03:08:36;25.33;;;16.30;;
70832;SDS011;71099;59.528;17.886;2023-09-19T03:11:04;23.45;;;15.45;;
70832;SDS011;71099;59.528;17.886;2023-09-19T03:13:31;24.63;;;16.70;;
70832;SDS011;71099;59.528;17.886;2023-09-19T03:15:57;28.77;;;17.20;;
70832;SDS011;71099;59.528;17.886;2023-09-19T03:18:26;25.58;;;16.05;;
70832;SDS011;71099;59.528;17.886;2023-09-19T03:20:55;29.25;;;17.98;;
70832;SDS011;71099;59.528;17.886;2023-09-19T03:23:21;27.40;;;16.63;;
70832;SDS011;71099;59.528;17.886;2023-09-19T03:25:46;24.65;;;17.10;;
70832;SDS011;71099;59.528;17.886;2023-09-19T03:28:13;25.92;;;19.17;;
70832;SDS011;71099;59.528;17.886;2023-09-19T06:14:24;37.55;;;28.60;;
70832;SDS011;71099;59.528;17.886;2023-09-19T06:16:49;35.92;;;26.83;;
70832;SDS011;71099;59.528;17.886;2023-09-19T06:34:09;34.95;;;24.75;;
70832;SDS011;71099;59.528;17.886;2023-09-19T06:36:35;33.28;;;26.20;;
70832;SDS011;71099;59.528;17.886;2023-09-19T06:39:00;33.75;;;24.40;;
70832;SDS011;71099;59.528;17.886;2023-09-19T06:41:25;33.90;;;26.55;;
70832;SDS011;71099;59.528;17.886;2023-09-19T06:43:51;34.83;;;26.20;;
70832;SDS011;71099;59.528;17.886;2023-09-19T06:46:19;38.83;;;26.65;;
70832;SDS011;71099;59.528;17.886;2023-09-19T06:48:45;34.03;;;26.33;;
70832;SDS011;71099;59.528;17.886;2023-09-19T06:51:12;41.28;;;25.23;;
70832;SDS011;71099;59.528;17.886;2023-09-19T06:53:40;39.75;;;25.63;;
70832;SDS011;71099;59.528;17.886;2023-09-19T06:56:06;29.80;;;25.65;;
70832;SDS011;71099;59.528;17.886;2023-09-19T06:58:31;34.92;;;25.15;;
70832;SDS011;71099;59.528;17.886;2023-09-19T07:00:57;35.45;;;25.58;;
70832;SDS011;71099;59.528;17.886;2023-09-19T07:03:22;30.38;;;23.80;;
70832;SDS011;71099;59.528;17.886;2023-09-19T07:05:51;30.70;;;25.02;;
70832;SDS011;71099;59.528;17.886;2023-09-19T07:08:17;32.63;;;26.35;;
70832;SDS011;71099;59.528;17.886;2023-09-19T07:10:45;31.67;;;24.83;;
70832;SDS011;71099;59.528;17.886;2023-09-19T07:13:13;30.88;;;24.38;;
70832;SDS011;71099;59.528;17.886;2023-09-19T07:15:41;37.20;;;24.10;;
70832;SDS011;71099;59.528;17.886;2023-09-19T07:18:11;28.70;;;22.70;;
70832;SDS011;71099;59.528;17.886;2023-09-19T07:20:39;28.40;;;24.40;;
70832;SDS011;71099;59.528;17.886;2023-09-19T07:23:14;30.92;;;23.90;;
70832;SDS011;71099;59.528;17.886;2023-09-19T07:25:43;25.98;;;22.40;;
70832;SDS011;71099;59.528;17.886;2023-09-19T07:28:09;35.45;;;23.15;;
70832;SDS011;71099;59.528;17.886;2023-09-19T07:30:37;33.85;;;24.30;;
70832;SDS011;71099;59.528;17.886;2023-09-19T07:33:04;31.75;;;23.27;;
70832;SDS011;71099;59.528;17.886;2023-09-19T07:35:30;29.77;;;23.17;;
70832;SDS011;71099;59.528;17.886;2023-09-19T07:37:56;30.50;;;24.17;;
70832;SDS011;71099;59.528;17.886;2023-09-19T07:40:23;33.28;;;22.58;;
70832;SDS011;71099;59.528;17.886;2023-09-19T07:42:56;26.50;;;21.95;;
70832;SDS011;71099;59.528;17.886;2023-09-19T07:45:26;32.67;;;21.65;;
70832;SDS011;71099;59.528;17.886;2023-09-19T07:47:56;27.67;;;22.55;;
70832;SDS011;71099;59.528;17.886;2023-09-19T07:50:21;29.40;;;20.85;;
70832;SDS011;71099;59.528;17.886;2023-09-19T07:52:48;31.38;;;19.58;;
70832;SDS011;71099;59.528;17.886;2023-09-19T07:55:16;27.00;;;21.25;;
70832;SDS011;71099;59.528;17.886;2023-09-19T07:57:42;28.08;;;21.38;;
70832;SDS011;71099;59.528;17.886;2023-09-19T08:00:08;28.67;;;20.98;;
70832;SDS011;71099;59.528;17.886;2023-09-19T08:02:38;25.63;;;20.63;;
70832;SDS011;71099;59.528;17.886;2023-09-19T08:05:05;25.52;;;20.52;;
70832;SDS011;71099;59.528;17.886;2023-09-19T08:07:34;26.33;;;20.10;;
70832;SDS011;71099;59.528;17.886;2023-09-19T08:10:01;25.10;;;20.98;;
70832;SDS011;71099;59.528;17.886;2023-09-19T08:12:26;24.90;;;18.98;;
70832;SDS011;71099;59.528;17.886;2023-09-19T08:14:52;22.73;;;20.05;;
70832;SDS011;71099;59.528;17.886;2023-09-19T08:17:17;24.52;;;18.20;;
70832;SDS011;71099;59.528;17.886;2023-09-19T08:19:45;25.02;;;17.92;;
70832;SDS011;71099;59.528;17.886;2023-09-19T08:22:11;22.52;;;17.33;;
70832;SDS011;71099;59.528;17.886;2023-09-19T08:24:37;20.27;;;17.27;;
70832;SDS011;71099;59.528;17.886;2023-09-19T08:27:03;19.17;;;16.50;;
70832;SDS011;71099;59.528;17.886;2023-09-19T08:29:29;21.92;;;16.13;;
70832;SDS011;71099;59.528;17.886;2023-09-19T08:31:59;19.05;;;16.08;;
70832;SDS011;71099;59.528;17.886;2023-09-19T08:34:24;20.88;;;15.82;;
70832;SDS011;71099;59.528;17.886;2023-09-19T08:36:50;16.90;;;15.13;;
70832;SDS011;71099;59.528;17.886;2023-09-19T08:39:18;18.83;;;14.95;;
70832;SDS011;71099;59.528;17.886;2023-09-19T08:41:44;20.25;;;14.35;;
70832;SDS011;71099;59.528;17.886;2023-09-19T08:44:09;20.70;;;13.15;;
70832;SDS011;71099;59.528;17.886;2023-09-19T08:46:35;16.95;;;12.57;;
70832;SDS011;71099;59.528;17.886;2023-09-19T08:49:08;17.23;;;13.63;;
70832;SDS011;71099;59.528;17.886;2023-09-19T08:51:47;19.65;;;14.68;;
70832;SDS011;71099;59.528;17.886;2023-09-19T08:54:24;17.10;;;14.15;;
70832;SDS011;71099;59.528;17.886;2023-09-19T08:56:51;20.30;;;13.00;;
70832;SDS011;71099;59.528;17.886;2023-09-19T08:59:21;19.85;;;14.60;;
70832;SDS011;71099;59.528;17.886;2023-09-19T09:01:49;22.58;;;13.23;;
70832;SDS011;71099;59.528;17.886;2023-09-19T09:04:18;17.80;;;13.07;;
70832;SDS011;71099;59.528;17.886;2023-09-19T09:06:45;14.95;;;12.80;;
70832;SDS011;71099;59.528;17.886;2023-09-19T09:09:14;16.83;;;12.63;;
70832;SDS011;71099;59.528;17.886;2023-09-19T09:11:40;18.58;;;12.25;;
70832;SDS011;71099;59.528;17.886;2023-09-19T09:14:06;18.60;;;11.88;;
70832;SDS011;71099;59.528;17.886;2023-09-19T09:16:34;15.20;;;12.45;;
70832;SDS011;71099;59.528;17.886;2023-09-19T09:19:00;13.23;;;11.82;;
70832;SDS011;71099;59.528;17.886;2023-09-19T09:21:27;16.25;;;11.40;;
70832;SDS011;71099;59.528;17.886;2023-09-19T09:23:53;19.05;;;11.95;;
70832;SDS011;71099;59.528;17.886;2023-09-19T09:29:10;15.07;;;11.52;;
70832;SDS011;71099;59.528;17.886;2023-09-19T09:31:35;15.32;;;11.18;;
70832;SDS011;71099;59.528;17.886;2023-09-19T09:34:03;18.98;;;11.25;;
70832;SDS011;71099;59.528;17.886;2023-09-19T09:36:38;20.30;;;11.15;;
70832;SDS011;71099;59.528;17.886;2023-09-19T09:39:06;15.98;;;10.75;;
70832;SDS011;71099;59.528;17.886;2023-09-19T09:41:43;15.65;;;11.52;;
70832;SDS011;71099;59.528;17.886;2023-09-19T09:44:12;12.07;;;10.77;;
70832;SDS011;71099;59.528;17.886;2023-09-19T09:46:43;11.95;;;10.23;;
70832;SDS011;71099;59.528;17.886;2023-09-19T09:49:25;16.77;;;9.93;;
70832;SDS011;71099;59.528;17.886;2023-09-19T09:54:26;10.13;;;8.77;;
70832;SDS011;71099;59.528;17.886;2023-09-19T09:57:01;11.57;;;9.18;;
70832;SDS011;71099;59.528;17.886;2023-09-19T09:59:47;13.15;;;8.93;;
70832;SDS011;71099;59.528;17.886;2023-09-19T10:02:19;15.23;;;9.32;;
70832;SDS011;71099;59.528;17.886;2023-09-19T10:04:50;10.32;;;8.25;;
70832;SDS011;71099;59.528;17.886;2023-09-19T10:07:34;13.82;;;8.52;;
70832;SDS011;71099;59.528;17.886;2023-09-19T10:10:03;9.43;;;8.32;;
70832;SDS011;71099;59.528;17.886;2023-09-19T10:12:46;10.50;;;7.75;;
70832;SDS011;71099;59.528;17.886;2023-09-19T10:15:14;8.70;;;7.88;;
70832;SDS011;71099;59.528;17.886;2023-09-19T10:17:43;11.52;;;7.53;;
70832;SDS011;71099;59.528;17.886;2023-09-19T10:20:12;11.38;;;7.80;;
70832;SDS011;71099;59.528;17.886;2023-09-19T10:23:04;10.95;;;7.53;;
70832;SDS011;71099;59.528;17.886;2023-09-19T10:25:34;10.77;;;7.10;;
70832;SDS011;71099;59.528;17.886;2023-09-19T10:28:02;8.73;;;6.43;;
70832;SDS011;71099;59.528;17.886;2023-09-19T10:30:31;8.55;;;7.03;;
70832;SDS011;71099;59.528;17.886;2023-09-19T10:33:02;10.52;;;6.45;;
70832;SDS011;71099;59.528;17.886;2023-09-19T10:35:30;6.40;;;5.00;;
70832;SDS011;71099;59.528;17.886;2023-09-19T10:37:59;8.45;;;5.40;;
70832;SDS011;71099;59.528;17.886;2023-09-19T10:40:28;12.70;;;6.35;;
70832;SDS011;71099;59.528;17.886;2023-09-19T10:43:04;8.68;;;4.72;;
70832;SDS011;71099;59.528;17.886;2023-09-19T10:45:31;7.95;;;3.95;;
70832;SDS011;71099;59.528;17.886;2023-09-19T10:47:59;7.65;;;4.53;;
70832;SDS011;71099;59.528;17.886;2023-09-19T10:50:32;7.57;;;3.65;;
70832;SDS011;71099;59.528;17.886;2023-09-19T10:53:02;8.30;;;4.93;;
70832;SDS011;71099;59.528;17.886;2023-09-19T10:55:33;8.75;;;4.78;;
70832;SDS011;71099;59.528;17.886;2023-09-19T10:58:00;5.43;;;4.50;;
70832;SDS011;71099;59.528;17.886;2023-09-19T11:00:29;6.47;;;4.00;;
70832;SDS011;71099;59.528;17.886;2023-09-19T11:05:40;5.80;;;3.55;;
70832;SDS011;71099;59.528;17.886;2023-09-19T11:08:07;7.60;;;3.47;;
70832;SDS011;71099;59.528;17.886;2023-09-19T11:10:45;3.42;;;2.33;;
70832;SDS011;71099;59.528;17.886;2023-09-19T11:13:30;4.68;;;3.05;;
70832;SDS011;71099;59.528;17.886;2023-09-19T11:26:42;3.60;;;2.50;;
70832;SDS011;71099;59.528;17.886;2023-09-19T11:29:47;5.25;;;2.25;;
70832;SDS011;71099;59.528;17.886;2023-09-19T11:32:06;2.90;;;1.75;;
70832;SDS011;71099;59.528;17.886;2023-09-19T11:34:41;2.45;;;1.58;;
70832;SDS011;71099;59.528;17.886;2023-09-19T11:39:36;2.30;;;1.60;;
70832;SDS011;71099;59.528;17.886;2023-09-19T11:45:06;4.20;;;1.88;;
70832;SDS011;71099;59.528;17.886;2023-09-19T11:47:31;3.90;;;1.30;;
70832;SDS011;71099;59.528;17.886;2023-09-19T11:50:00;3.63;;;1.08;;
70832;SDS011;71099;59.528;17.886;2023-09-19T11:52:26;1.77;;;1.20;;
70832;SDS011;71099;59.528;17.886;2023-09-19T11:54:59;1.33;;;1.08;;
70832;SDS011;71099;59.528;17.886;2023-09-19T11:57:26;3.55;;;1.15;;
70832;SDS011;71099;59.528;17.886;2023-09-19T11:59:55;2.00;;;1.00;;
70832;SDS011;71099;59.528;17.886;2023-09-19T12:02:29;5.00;;;1.30;;
70832;SDS011;71099;59.528;17.886;2023-09-19T12:05:03;2.47;;;1.20;;
70832;SDS011;71099;59.528;17.886;2023-09-19T12:07:29;3.85;;;1.02;;
70832;SDS011;71099;59.528;17.886;2023-09-19T12:10:04;3.15;;;1.65;;
70832;SDS011;71099;59.528;17.886;2023-09-19T12:12:31;2.28;;;1.17;;
70832;SDS011;71099;59.528;17.886;2023-09-19T12:14:58;1.92;;;1.23;;
70832;SDS011;71099;59.528;17.886;2023-09-19T12:17:37;6.82;;;1.48;;
70832;SDS011;71099;59.528;17.886;2023-09-19T12:20:07;3.03;;;1.13;;
70832;SDS011;71099;59.528;17.886;2023-09-19T12:22:41;1.83;;;1.30;;
70832;SDS011;71099;59.528;17.886;2023-09-19T12:25:11;5.18;;;1.30;;
70832;SDS011;71099;59.528;17.886;2023-09-19T12:27:45;4.30;;;0.90;;
70832;SDS011;71099;59.528;17.886;2023-09-19T12:30:22;1.25;;;0.90;;
70832;SDS011;71099;59.528;17.886;2023-09-19T12:32:53;3.95;;;1.60;;
70832;SDS011;71099;59.528;17.886;2023-09-19T12:35:33;2.45;;;1.38;;
70832;SDS011;71099;59.528;17.886;2023-09-19T12:38:03;2.00;;;1.10;;
70832;SDS011;71099;59.528;17.886;2023-09-19T12:40:30;2.00;;;1.20;;
70832;SDS011;71099;59.528;17.886;2023-09-19T12:42:58;6.00;;;1.30;;
70832;SDS011;71099;59.528;17.886;2023-09-19T12:45:24;3.30;;;1.08;;
70832;SDS011;71099;59.528;17.886;2023-09-19T12:53:44;5.85;;;1.20;;
70832;SDS011;71099;59.528;17.886;2023-09-19T12:56:14;8.82;;;1.33;;
70832;SDS011;71099;59.528;17.886;2023-09-19T13:01:19;2.92;;;1.85;;
70832;SDS011;71099;59.528;17.886;2023-09-19T13:04:10;6.28;;;2.33;;
70832;SDS011;71099;59.528;17.886;2023-09-19T13:06:50;4.20;;;1.35;;
70832;SDS011;71099;59.528;17.886;2023-09-19T13:09:17;12.05;;;1.85;;
70832;SDS011;71099;59.528;17.886;2023-09-19T13:11:45;6.97;;;1.85;;
70832;SDS011;71099;59.528;17.886;2023-09-19T13:16:57;5.88;;;1.90;;
70832;SDS011;71099;59.528;17.886;2023-09-19T13:19:36;13.60;;;2.58;;
70832;SDS011;71099;59.528;17.886;2023-09-19T13:22:04;8.60;;;1.65;;
70832;SDS011;71099;59.528;17.886;2023-09-19T13:24:31;17.25;;;3.42;;
70832;SDS011;71099;59.528;17.886;2023-09-19T13:27:00;8.65;;;1.73;;
70832;SDS011;71099;59.528;17.886;2023-09-19T13:29:25;16.58;;;2.08;;
70832;SDS011;71099;59.528;17.886;2023-09-19T13:31:51;6.72;;;1.98;;
70832;SDS011;71099;59.528;17.886;2023-09-19T13:34:20;22.48;;;2.10;;
70832;SDS011;71099;59.528;17.886;2023-09-19T13:36:46;13.15;;;1.95;;
70832;SDS011;71099;59.528;17.886;2023-09-19T13:39:15;14.68;;;2.10;;
70832;SDS011;71099;59.528;17.886;2023-09-19T13:41:44;13.55;;;2.38;;
70832;SDS011;71099;59.528;17.886;2023-09-19T13:44:11;9.07;;;1.83;;
70832;SDS011;71099;59.528;17.886;2023-09-19T13:46:37;6.60;;;1.92;;
70832;SDS011;71099;59.528;17.886;2023-09-19T13:49:03;8.80;;;1.80;;
70832;SDS011;71099;59.528;17.886;2023-09-19T13:51:30;6.10;;;1.35;;
70832;SDS011;71099;59.528;17.886;2023-09-19T13:53:56;6.82;;;1.08;;
70832;SDS011;71099;59.528;17.886;2023-09-19T13:56:22;12.93;;;2.00;;
70832;SDS011;71099;59.528;17.886;2023-09-19T13:58:47;4.60;;;1.23;;
70832;SDS011;71099;59.528;17.886;2023-09-19T14:01:13;10.48;;;2.20;;
70832;SDS011;71099;59.528;17.886;2023-09-19T14:03:39;7.45;;;1.48;;
70832;SDS011;71099;59.528;17.886;2023-09-19T14:06:05;4.05;;;1.52;;
70832;SDS011;71099;59.528;17.886;2023-09-19T14:08:30;8.43;;;1.33;;
70832;SDS011;71099;59.528;17.886;2023-09-19T14:10:58;8.73;;;1.23;;
70832;SDS011;71099;59.528;17.886;2023-09-19T14:13:23;7.70;;;2.05;;
70832;SDS011;71099;59.528;17.886;2023-09-19T14:15:50;8.60;;;1.48;;
70832;SDS011;71099;59.528;17.886;2023-09-19T14:18:16;5.57;;;1.20;;
70832;SDS011;71099;59.528;17.886;2023-09-19T14:20:41;6.82;;;1.70;;
70832;SDS011;71099;59.528;17.886;2023-09-19T14:23:07;13.45;;;1.40;;
70832;SDS011;71099;59.528;17.886;2023-09-19T14:25:35;7.50;;;1.80;;
70832;SDS011;71099;59.528;17.886;2023-09-19T14:28:01;7.00;;;1.20;;
70832;SDS011;71099;59.528;17.886;2023-09-19T14:30:27;5.47;;;1.40;;
70832;SDS011;71099;59.528;17.886;2023-09-19T14:32:53;7.22;;;2.03;;
70832;SDS011;71099;59.528;17.886;2023-09-19T14:35:18;4.60;;;1.52;;
70832;SDS011;71099;59.528;17.886;2023-09-19T14:37:44;2.85;;;1.20;;
70832;SDS011;71099;59.528;17.886;2023-09-19T14:40:10;3.97;;;1.27;;
70832;SDS011;71099;59.528;17.886;2023-09-19T14:42:38;6.68;;;1.75;;
70832;SDS011;71099;59.528;17.886;2023-09-19T14:45:05;4.63;;;1.65;;
70832;SDS011;71099;59.528;17.886;2023-09-19T14:47:31;3.22;;;1.20;;
70832;SDS011;71099;59.528;17.886;2023-09-19T14:49:59;6.40;;;1.70;;
70832;SDS011;71099;59.528;17.886;2023-09-19T14:52:31;8.98;;;1.70;;
70832;SDS011;71099;59.528;17.886;2023-09-19T14:55:01;7.70;;;1.67;;
70832;SDS011;71099;59.528;17.886;2023-09-19T14:57:26;2.80;;;1.45;;
70832;SDS011;71099;59.528;17.886;2023-09-19T14:59:52;3.22;;;1.48;;
70832;SDS011;71099;59.528;17.886;2023-09-19T15:02:17;5.30;;;1.58;;
70832;SDS011;71099;59.528;17.886;2023-09-19T15:04:43;4.57;;;1.38;;
70832;SDS011;71099;59.528;17.886;2023-09-19T15:07:12;3.95;;;1.60;;
70832;SDS011;71099;59.528;17.886;2023-09-19T15:09:40;2.97;;;1.27;;
70832;SDS011;71099;59.528;17.886;2023-09-19T15:12:06;7.20;;;1.95;;
70832;SDS011;71099;59.528;17.886;2023-09-19T15:14:32;3.90;;;1.85;;
70832;SDS011;71099;59.528;17.886;2023-09-19T15:16:57;2.72;;;0.80;;
70832;SDS011;71099;59.528;17.886;2023-09-19T15:19:22;3.00;;;0.88;;
70832;SDS011;71099;59.528;17.886;2023-09-19T15:21:48;4.20;;;1.33;;
70832;SDS011;71099;59.528;17.886;2023-09-19T15:24:13;5.57;;;0.70;;
70832;SDS011;71099;59.528;17.886;2023-09-19T15:26:40;1.00;;;0.52;;
70832;SDS011;71099;59.528;17.886;2023-09-19T15:29:05;1.48;;;0.50;;
70832;SDS011;71099;59.528;17.886;2023-09-19T15:31:31;4.75;;;0.68;;
70832;SDS011;71099;59.528;17.886;2023-09-19T15:33:57;0.50;;;0.50;;
70832;SDS011;71099;59.528;17.886;2023-09-19T15:36:23;4.10;;;0.60;;
70832;SDS011;71099;59.528;17.886;2023-09-19T15:38:58;1.05;;;0.80;;
70832;SDS011;71099;59.528;17.886;2023-09-19T15:41:32;0.45;;;0.45;;
70832;SDS011;71099;59.528;17.886;2023-09-19T15:44:04;1.38;;;0.60;;
70832;SDS011;71099;59.528;17.886;2023-09-19T15:46:36;2.67;;;0.50;;
70832;SDS011;71099;59.528;17.886;2023-09-19T15:49:02;3.00;;;0.50;;
70832;SDS011;71099;59.528;17.886;2023-09-19T15:51:28;2.10;;;0.80;;
70832;SDS011;71099;59.528;17.886;2023-09-19T15:53:54;4.93;;;0.88;;
70832;SDS011;71099;59.528;17.886;2023-09-19T15:56:22;2.28;;;0.70;;
70832;SDS011;71099;59.528;17.886;2023-09-19T15:58:49;2.83;;;0.88;;
70832;SDS011;71099;59.528;17.886;2023-09-19T16:01:16;4.00;;;0.85;;
70832;SDS011;71099;59.528;17.886;2023-09-19T16:03:45;2.17;;;0.73;;
70832;SDS011;71099;59.528;17.886;2023-09-19T16:06:13;2.35;;;0.80;;
70832;SDS011;71099;59.528;17.886;2023-09-19T16:08:40;2.78;;;0.68;;
70832;SDS011;71099;59.528;17.886;2023-09-19T16:11:07;3.72;;;0.80;;
70832;SDS011;71099;59.528;17.886;2023-09-19T16:13:34;4.43;;;0.55;;
70832;SDS011;71099;59.528;17.886;2023-09-19T16:15:59;4.70;;;0.68;;
70832;SDS011;71099;59.528;17.886;2023-09-19T16:18:25;2.20;;;0.70;;
70832;SDS011;71099;59.528;17.886;2023-09-19T16:20:50;4.43;;;1.60;;
70832;SDS011;71099;59.528;17.886;2023-09-19T16:23:16;2.08;;;1.10;;
70832;SDS011;71099;59.528;17.886;2023-09-19T16:25:41;2.97;;;0.80;;
70832;SDS011;71099;59.528;17.886;2023-09-19T16:28:07;3.80;;;0.95;;
70832;SDS011;71099;59.528;17.886;2023-09-19T16:30:33;2.90;;;0.70;;
70832;SDS011;71099;59.528;17.886;2023-09-19T16:32:59;2.70;;;0.70;;
70832;SDS011;71099;59.528;17.886;2023-09-19T16:35:24;3.22;;;0.88;;
70832;SDS011;71099;59.528;17.886;2023-09-19T16:37:50;5.57;;;0.85;;
70832;SDS011;71099;59.528;17.886;2023-09-19T16:40:15;3.58;;;0.77;;
70832;SDS011;71099;59.528;17.886;2023-09-19T16:42:41;6.72;;;1.17;;
70832;SDS011;71099;59.528;17.886;2023-09-19T16:45:07;4.05;;;0.85;;
70832;SDS011;71099;59.528;17.886;2023-09-19T16:47:35;2.92;;;0.52;;
70832;SDS011;71099;59.528;17.886;2023-09-19T16:50:01;5.05;;;1.00;;
70832;SDS011;71099;59.528;17.886;2023-09-19T16:52:27;2.70;;;0.90;;
70832;SDS011;71099;59.528;17.886;2023-09-19T16:54:52;1.17;;;0.60;;
70832;SDS011;71099;59.528;17.886;2023-09-19T16:57:18;4.22;;;0.82;;
70832;SDS011;71099;59.528;17.886;2023-09-19T16:59:47;1.98;;;0.70;;
70832;SDS011;71099;59.528;17.886;2023-09-19T17:02:12;2.13;;;0.68;;
70832;SDS011;71099;59.528;17.886;2023-09-19T17:04:38;2.55;;;0.90;;
70832;SDS011;71099;59.528;17.886;2023-09-19T17:07:03;1.67;;;0.95;;
70832;SDS011;71099;59.528;17.886;2023-09-19T17:09:28;3.92;;;1.45;;
70832;SDS011;71099;59.528;17.886;2023-09-19T17:11:54;2.35;;;0.90;;
70832;SDS011;71099;59.528;17.886;2023-09-19T17:14:19;3.75;;;1.02;;
70832;SDS011;71099;59.528;17.886;2023-09-19T17:16:45;3.83;;;0.80;;
70832;SDS011;71099;59.528;17.886;2023-09-19T17:19:10;6.75;;;0.70;;
70832;SDS011;71099;59.528;17.886;2023-09-19T17:21:37;2.78;;;0.82;;
70832;SDS011;71099;59.528;17.886;2023-09-19T17:24:03;1.95;;;0.60;;
70832;SDS011;71099;59.528;17.886;2023-09-19T17:26:32;3.00;;;0.90;;
70832;SDS011;71099;59.528;17.886;2023-09-19T17:28:58;3.20;;;0.82;;
70832;SDS011;71099;59.528;17.886;2023-09-19T17:31:24;2.60;;;0.70;;
70832;SDS011;71099;59.528;17.886;2023-09-19T17:33:52;2.20;;;0.80;;
70832;SDS011;71099;59.528;17.886;2023-09-19T17:38:49;2.75;;;1.13;;
70832;SDS011;71099;59.528;17.886;2023-09-19T17:41:15;3.72;;;1.20;;
70832;SDS011;71099;59.528;17.886;2023-09-19T17:43:43;3.83;;;1.15;;
70832;SDS011;71099;59.528;17.886;2023-09-19T17:46:10;3.38;;;1.10;;
70832;SDS011;71099;59.528;17.886;2023-09-19T17:48:37;2.50;;;1.13;;
70832;SDS011;71099;59.528;17.886;2023-09-19T17:51:07;2.15;;;0.88;;
70832;SDS011;71099;59.528;17.886;2023-09-19T17:53:34;2.63;;;0.70;;
70832;SDS011;71099;59.528;17.886;2023-09-19T17:56:01;10.85;;;2.25;;
70832;SDS011;71099;59.528;17.886;2023-09-19T17:58:28;1.58;;;0.85;;
70832;SDS011;71099;59.528;17.886;2023-09-19T18:00:54;2.30;;;1.08;;
70832;SDS011;71099;59.528;17.886;2023-09-19T18:03:21;4.03;;;0.85;;
70832;SDS011;71099;59.528;17.886;2023-09-19T18:05:51;2.35;;;0.90;;
70832;SDS011;71099;59.528;17.886;2023-09-19T18:08:18;3.03;;;0.70;;
70832;SDS011;71099;59.528;17.886;2023-09-19T18:10:46;2.78;;;1.17;;
70832;SDS011;71099;59.528;17.886;2023-09-19T18:13:12;3.03;;;0.80;;
70832;SDS011;71099;59.528;17.886;2023-09-19T18:15:38;2.83;;;0.82;;
70832;SDS011;71099;59.528;17.886;2023-09-19T18:18:04;1.00;;;0.52;;